Hlavní strana
METAR-TAF:

METAR-TAF

Letiště :

Franceville, Gabon

zeměpisná šířka: 01-39S, zeměpisná délka: 013-26E, výška: 441 m

Aktuální stav počasí

Zpráva byla vytvořena před 1 hodinou a 10 minutami, v 13:00 UTC
vítr z různých směrů 4 kt
Teplota 31°C
Vlhkost vzduchu 66%
Tlak 1011 hPa
Viditelnost 10 km a více
Oblačno až skoro zataženo ve výšce 1500 ft

METAR: FOON 191300Z VRB04KT 9999 BKN015 31/24 Q1011

Čas: 15:10 (14:10 UTC)


TAF: chybějící

Stav a předpovědi počasí z více než 4 000 letišť (zprávy METAR a TAF).

Červené a žluté tečky na mapě představují dostupné meteorologické stanice.

Když kurzor umístíte na tečku, zobrazí se název stanice.

Pak kliknutím zobrazíte stav a předpověď počasí.

Chcete-li změnit mapu, kliknutím na zelené tlačítko se znaménkem +mapu přiblížíte, kliknutím na zelené tlačítko se znaménkem – mapu oddálíte a kliknutím na zelené šipky přejdete na sousední mapy.


METAR-TAF: